This is the latest recevied weather packets stored in our database for station/object N1UNH. If no packets are shown the sender has not sent any weather packets the latest 1 day(s).
| Time | Temp. | Humidity | Pressure | Rain* | Wind** | Luminosity | Snow |
|---|---|---|---|---|---|---|---|
| 1778086788 | 20° C | 63% | 1012.1 hPa | 0 mm | - | 64 W/m² | - |
| 1778086487 | 20° C | 62% | 1012.3 hPa | 0 mm | - | 53 W/m² | - |
| 1778084362 | 20.56° C | 62% | 1012.4 hPa | 0 mm | - | 201 W/m² | - |
| 1778083757 | 20° C | 63% | 1012.3 hPa | 0 mm | - | 268 W/m² | - |
| 1778083454 | 20° C | 65% | 1012.6 hPa | 0 mm | - | 203 W/m² | - |
| 1778083152 | 20° C | 64% | 1012.8 hPa | 0 mm | - | 193 W/m² | - |
| 1778081725 | 20° C | 64% | 1013.4 hPa | 0 mm | - | 85 W/m² | - |
| 1778080212 | 18.89° C | 73% | 1013.3 hPa | 0 mm | - | 119 W/m² | - |
| 1778079908 | 19.44° C | 71% | 1013.6 hPa | 0 mm | - | 66 W/m² | - |
| 1778078394 | 20° C | 67% | 1013.6 hPa | 0 mm | - | 150 W/m² | - |
| 1778077789 | 20° C | 68% | 1013.4 hPa | 0 mm | - | 217 W/m² | - |
| 1778076882 | 20° C | 71% | 1013.2 hPa | 0 mm | - | 245 W/m² | - |
| 1778076277 | 18.89° C | 70% | 1013.4 hPa | 0 mm | - | 229 W/m² | - |
| 1778075367 | 17.78° C | 72% | 1013.3 hPa | 0 mm | - | 221 W/m² | - |
| 1778075063 | 17.78° C | 77% | 1013.5 hPa | 0 mm | - | 200 W/m² | - |
| 1778073549 | 16.67° C | 80% | 1013.8 hPa | 0 mm | - | 90 W/m² | - |
| 1778072942 | 16.67° C | 81% | 1014.2 hPa | 0 mm | - | 108 W/m² | - |
| 1778072035 | 16.11° C | 81% | 1014.2 hPa | 0 mm | - | 86 W/m² | - |
| 1778071127 | 15.56° C | 83% | 1013.9 hPa | 0 mm | - | 74 W/m² | - |
| 1778070219 | 15.56° C | 84% | 1014 hPa | 0 mm | - | 94 W/m² | - |
| 1778069614 | 15° C | 83% | 1014 hPa | 0 mm | - | 94 W/m² | - |
| 1778069311 | 15° C | 82% | 1014.1 hPa | 0 mm | - | 64 W/m² | - |
| 1778069009 | 15° C | 85% | 1014.1 hPa | 0 mm | - | 55 W/m² | - |
| 1778068706 | 15° C | 84% | 1014.2 hPa | 0 mm | - | 78 W/m² | - |
| 1778067195 | 13.89° C | 87% | 1014.2 hPa | 0 mm | - | 58 W/m² | - |
* Rain latest hour (hover to see other rain measurements)
** Current wind speed in m/s (hover to see current wind gust speed)